sensor_id;sensor_type;location;lat;lon;timestamp;P1;durP1;ratioP1;P2;durP2;ratioP2
74904;SDS011;63465;50.862;6.220;2024-03-25T00:00:40;9.93;;;4.00;;
74904;SDS011;63465;50.862;6.220;2024-03-25T00:03:05;6.60;;;3.53;;
74904;SDS011;63465;50.862;6.220;2024-03-25T00:05:31;10.60;;;4.33;;
74904;SDS011;63465;50.862;6.220;2024-03-25T00:07:57;10.47;;;4.00;;
74904;SDS011;63465;50.862;6.220;2024-03-25T00:10:23;9.10;;;3.67;;
74904;SDS011;63465;50.862;6.220;2024-03-25T00:12:48;8.33;;;4.10;;
74904;SDS011;63465;50.862;6.220;2024-03-25T00:15:18;11.47;;;3.90;;
74904;SDS011;63465;50.862;6.220;2024-03-25T00:17:44;11.40;;;4.70;;
74904;SDS011;63465;50.862;6.220;2024-03-25T00:20:11;15.43;;;4.03;;
74904;SDS011;63465;50.862;6.220;2024-03-25T00:22:38;9.83;;;3.30;;
74904;SDS011;63465;50.862;6.220;2024-03-25T00:25:03;9.60;;;4.00;;
74904;SDS011;63465;50.862;6.220;2024-03-25T00:27:29;11.23;;;3.50;;
74904;SDS011;63465;50.862;6.220;2024-03-25T00:29:55;10.13;;;3.37;;
74904;SDS011;63465;50.862;6.220;2024-03-25T00:32:20;8.10;;;3.40;;
74904;SDS011;63465;50.862;6.220;2024-03-25T00:34:46;12.77;;;3.33;;
74904;SDS011;63465;50.862;6.220;2024-03-25T00:37:11;9.37;;;4.13;;
74904;SDS011;63465;50.862;6.220;2024-03-25T00:39:36;7.60;;;3.07;;
74904;SDS011;63465;50.862;6.220;2024-03-25T00:42:02;9.43;;;4.07;;
74904;SDS011;63465;50.862;6.220;2024-03-25T00:44:27;13.47;;;3.90;;
74904;SDS011;63465;50.862;6.220;2024-03-25T00:46:53;12.17;;;3.47;;
74904;SDS011;63465;50.862;6.220;2024-03-25T00:49:18;12.30;;;4.30;;
74904;SDS011;63465;50.862;6.220;2024-03-25T00:51:44;17.73;;;4.37;;
74904;SDS011;63465;50.862;6.220;2024-03-25T00:54:09;12.53;;;3.77;;
74904;SDS011;63465;50.862;6.220;2024-03-25T00:56:34;14.37;;;4.40;;
74904;SDS011;63465;50.862;6.220;2024-03-25T00:59:00;7.60;;;3.23;;
74904;SDS011;63465;50.862;6.220;2024-03-25T01:01:28;12.33;;;4.37;;
74904;SDS011;63465;50.862;6.220;2024-03-25T01:03:54;10.40;;;3.50;;
74904;SDS011;63465;50.862;6.220;2024-03-25T01:06:19;12.83;;;4.13;;
74904;SDS011;63465;50.862;6.220;2024-03-25T01:08:44;9.17;;;3.57;;
74904;SDS011;63465;50.862;6.220;2024-03-25T01:11:10;7.30;;;3.50;;
74904;SDS011;63465;50.862;6.220;2024-03-25T01:13:35;20.57;;;3.70;;
74904;SDS011;63465;50.862;6.220;2024-03-25T01:16:00;10.13;;;3.50;;
74904;SDS011;63465;50.862;6.220;2024-03-25T01:18:26;8.87;;;3.60;;
74904;SDS011;63465;50.862;6.220;2024-03-25T01:20:51;13.67;;;3.40;;
74904;SDS011;63465;50.862;6.220;2024-03-25T01:23:16;8.77;;;3.90;;
74904;SDS011;63465;50.862;6.220;2024-03-25T01:25:42;7.70;;;3.77;;
74904;SDS011;63465;50.862;6.220;2024-03-25T01:28:07;9.20;;;4.00;;
74904;SDS011;63465;50.862;6.220;2024-03-25T01:30:32;11.23;;;4.20;;
74904;SDS011;63465;50.862;6.220;2024-03-25T01:33:00;14.00;;;3.63;;
74904;SDS011;63465;50.862;6.220;2024-03-25T01:35:26;7.83;;;3.90;;
74904;SDS011;63465;50.862;6.220;2024-03-25T01:37:51;10.20;;;3.90;;
74904;SDS011;63465;50.862;6.220;2024-03-25T01:40:16;9.17;;;3.63;;
74904;SDS011;63465;50.862;6.220;2024-03-25T01:42:42;10.30;;;3.63;;
74904;SDS011;63465;50.862;6.220;2024-03-25T01:45:09;15.17;;;3.97;;
74904;SDS011;63465;50.862;6.220;2024-03-25T01:47:35;11.70;;;4.20;;
74904;SDS011;63465;50.862;6.220;2024-03-25T01:50:02;10.53;;;4.23;;
74904;SDS011;63465;50.862;6.220;2024-03-25T01:52:28;10.80;;;3.83;;
74904;SDS011;63465;50.862;6.220;2024-03-25T01:54:54;9.07;;;3.93;;
74904;SDS011;63465;50.862;6.220;2024-03-25T01:57:20;12.57;;;3.83;;
74904;SDS011;63465;50.862;6.220;2024-03-25T01:59:46;20.77;;;4.00;;
74904;SDS011;63465;50.862;6.220;2024-03-25T02:02:11;12.53;;;3.67;;
74904;SDS011;63465;50.862;6.220;2024-03-25T02:04:39;10.07;;;3.00;;
74904;SDS011;63465;50.862;6.220;2024-03-25T02:07:05;10.60;;;3.80;;
74904;SDS011;63465;50.862;6.220;2024-03-25T02:09:32;15.37;;;4.50;;
74904;SDS011;63465;50.862;6.220;2024-03-25T02:11:58;10.23;;;3.37;;
74904;SDS011;63465;50.862;6.220;2024-03-25T02:14:24;9.70;;;3.77;;
74904;SDS011;63465;50.862;6.220;2024-03-25T02:16:50;14.63;;;3.97;;
74904;SDS011;63465;50.862;6.220;2024-03-25T02:19:15;11.00;;;3.40;;
74904;SDS011;63465;50.862;6.220;2024-03-25T02:21:40;11.77;;;3.53;;
74904;SDS011;63465;50.862;6.220;2024-03-25T02:24:07;10.33;;;3.37;;
74904;SDS011;63465;50.862;6.220;2024-03-25T02:26:35;13.30;;;3.60;;
74904;SDS011;63465;50.862;6.220;2024-03-25T02:29:00;17.80;;;3.97;;
74904;SDS011;63465;50.862;6.220;2024-03-25T02:31:27;12.47;;;4.40;;
74904;SDS011;63465;50.862;6.220;2024-03-25T02:33:52;10.67;;;4.20;;
74904;SDS011;63465;50.862;6.220;2024-03-25T02:36:17;13.93;;;4.17;;
74904;SDS011;63465;50.862;6.220;2024-03-25T02:38:43;15.93;;;4.63;;
74904;SDS011;63465;50.862;6.220;2024-03-25T02:41:08;11.90;;;3.60;;
74904;SDS011;63465;50.862;6.220;2024-03-25T02:43:34;9.20;;;3.60;;
74904;SDS011;63465;50.862;6.220;2024-03-25T02:46:00;9.97;;;3.80;;
74904;SDS011;63465;50.862;6.220;2024-03-25T02:48:25;13.77;;;4.37;;
74904;SDS011;63465;50.862;6.220;2024-03-25T02:50:51;11.40;;;3.30;;
74904;SDS011;63465;50.862;6.220;2024-03-25T02:53:16;10.53;;;3.47;;
74904;SDS011;63465;50.862;6.220;2024-03-25T02:55:41;6.80;;;3.17;;
74904;SDS011;63465;50.862;6.220;2024-03-25T02:58:06;14.43;;;3.80;;
74904;SDS011;63465;50.862;6.220;2024-03-25T03:00:32;13.30;;;4.07;;
74904;SDS011;63465;50.862;6.220;2024-03-25T03:02:57;12.47;;;4.40;;
74904;SDS011;63465;50.862;6.220;2024-03-25T03:05:22;9.80;;;3.40;;
74904;SDS011;63465;50.862;6.220;2024-03-25T03:07:48;17.63;;;4.03;;
74904;SDS011;63465;50.862;6.220;2024-03-25T03:10:13;12.53;;;4.80;;
74904;SDS011;63465;50.862;6.220;2024-03-25T03:12:38;10.20;;;4.00;;
74904;SDS011;63465;50.862;6.220;2024-03-25T03:15:04;17.07;;;4.77;;
74904;SDS011;63465;50.862;6.220;2024-03-25T03:17:30;14.80;;;4.80;;
74904;SDS011;63465;50.862;6.220;2024-03-25T03:19:55;11.53;;;4.23;;
74904;SDS011;63465;50.862;6.220;2024-03-25T03:22:20;11.43;;;4.40;;
74904;SDS011;63465;50.862;6.220;2024-03-25T03:24:45;13.10;;;4.87;;
74904;SDS011;63465;50.862;6.220;2024-03-25T03:27:11;9.33;;;4.20;;
74904;SDS011;63465;50.862;6.220;2024-03-25T03:29:36;15.13;;;4.70;;
74904;SDS011;63465;50.862;6.220;2024-03-25T03:32:01;14.73;;;4.70;;
74904;SDS011;63465;50.862;6.220;2024-03-25T03:34:27;11.50;;;4.70;;
74904;SDS011;63465;50.862;6.220;2024-03-25T03:36:52;13.37;;;4.70;;
74904;SDS011;63465;50.862;6.220;2024-03-25T03:39:17;14.33;;;4.93;;
74904;SDS011;63465;50.862;6.220;2024-03-25T03:41:44;10.97;;;4.40;;
74904;SDS011;63465;50.862;6.220;2024-03-25T03:44:09;8.77;;;4.33;;
74904;SDS011;63465;50.862;6.220;2024-03-25T03:46:34;12.33;;;5.00;;
74904;SDS011;63465;50.862;6.220;2024-03-25T03:49:00;7.50;;;4.27;;
74904;SDS011;63465;50.862;6.220;2024-03-25T03:51:25;13.93;;;4.60;;
74904;SDS011;63465;50.862;6.220;2024-03-25T03:53:51;11.10;;;4.40;;
74904;SDS011;63465;50.862;6.220;2024-03-25T03:56:16;23.63;;;5.10;;
74904;SDS011;63465;50.862;6.220;2024-03-25T03:58:42;8.43;;;5.27;;
74904;SDS011;63465;50.862;6.220;2024-03-25T04:01:14;12.10;;;5.10;;
74904;SDS011;63465;50.862;6.220;2024-03-25T04:03:42;10.83;;;4.53;;
74904;SDS011;63465;50.862;6.220;2024-03-25T04:06:08;8.67;;;4.40;;
74904;SDS011;63465;50.862;6.220;2024-03-25T04:08:35;9.93;;;4.50;;
74904;SDS011;63465;50.862;6.220;2024-03-25T04:11:01;11.77;;;4.50;;
74904;SDS011;63465;50.862;6.220;2024-03-25T04:13:27;5.90;;;3.73;;
74904;SDS011;63465;50.862;6.220;2024-03-25T04:15:52;11.13;;;4.80;;
74904;SDS011;63465;50.862;6.220;2024-03-25T04:18:17;19.43;;;4.90;;
74904;SDS011;63465;50.862;6.220;2024-03-25T04:20:44;9.77;;;4.30;;
74904;SDS011;63465;50.862;6.220;2024-03-25T04:23:09;13.47;;;4.80;;
74904;SDS011;63465;50.862;6.220;2024-03-25T04:25:35;6.73;;;5.00;;
74904;SDS011;63465;50.862;6.220;2024-03-25T04:28:04;7.40;;;4.63;;
74904;SDS011;63465;50.862;6.220;2024-03-25T04:30:33;11.10;;;4.70;;
74904;SDS011;63465;50.862;6.220;2024-03-25T04:32:59;8.90;;;5.13;;
74904;SDS011;63465;50.862;6.220;2024-03-25T04:35:24;7.73;;;4.77;;
74904;SDS011;63465;50.862;6.220;2024-03-25T04:37:50;14.17;;;4.10;;
74904;SDS011;63465;50.862;6.220;2024-03-25T04:40:15;12.33;;;4.93;;
74904;SDS011;63465;50.862;6.220;2024-03-25T04:42:43;8.43;;;4.17;;
74904;SDS011;63465;50.862;6.220;2024-03-25T04:45:09;10.10;;;5.13;;
74904;SDS011;63465;50.862;6.220;2024-03-25T04:47:34;8.30;;;4.33;;
74904;SDS011;63465;50.862;6.220;2024-03-25T04:49:59;16.37;;;4.77;;
74904;SDS011;63465;50.862;6.220;2024-03-25T04:52:25;12.57;;;5.20;;
74904;SDS011;63465;50.862;6.220;2024-03-25T04:54:50;12.13;;;4.50;;
74904;SDS011;63465;50.862;6.220;2024-03-25T04:57:16;9.37;;;4.27;;
74904;SDS011;63465;50.862;6.220;2024-03-25T04:59:41;9.97;;;4.53;;
74904;SDS011;63465;50.862;6.220;2024-03-25T05:02:06;9.53;;;5.03;;
74904;SDS011;63465;50.862;6.220;2024-03-25T05:04:32;10.17;;;5.07;;
74904;SDS011;63465;50.862;6.220;2024-03-25T05:06:57;10.00;;;5.13;;
74904;SDS011;63465;50.862;6.220;2024-03-25T05:09:23;10.27;;;4.37;;
74904;SDS011;63465;50.862;6.220;2024-03-25T05:11:48;8.93;;;5.67;;
74904;SDS011;63465;50.862;6.220;2024-03-25T05:14:14;8.07;;;4.83;;
74904;SDS011;63465;50.862;6.220;2024-03-25T05:16:39;10.30;;;5.47;;
74904;SDS011;63465;50.862;6.220;2024-03-25T05:19:04;8.20;;;5.10;;
74904;SDS011;63465;50.862;6.220;2024-03-25T05:21:30;15.27;;;5.60;;
74904;SDS011;63465;50.862;6.220;2024-03-25T05:23:56;6.63;;;5.60;;
74904;SDS011;63465;50.862;6.220;2024-03-25T05:26:22;14.30;;;5.13;;
74904;SDS011;63465;50.862;6.220;2024-03-25T05:28:51;12.43;;;6.10;;
74904;SDS011;63465;50.862;6.220;2024-03-25T05:31:21;13.33;;;5.00;;
74904;SDS011;63465;50.862;6.220;2024-03-25T05:33:47;13.20;;;5.50;;
74904;SDS011;63465;50.862;6.220;2024-03-25T05:36:12;15.23;;;5.97;;
74904;SDS011;63465;50.862;6.220;2024-03-25T05:38:38;7.93;;;5.23;;
74904;SDS011;63465;50.862;6.220;2024-03-25T05:41:04;14.50;;;5.60;;
74904;SDS011;63465;50.862;6.220;2024-03-25T05:43:29;14.33;;;5.50;;
74904;SDS011;63465;50.862;6.220;2024-03-25T05:45:55;13.77;;;5.10;;
74904;SDS011;63465;50.862;6.220;2024-03-25T05:48:21;6.87;;;4.80;;
74904;SDS011;63465;50.862;6.220;2024-03-25T05:50:56;10.63;;;5.43;;
74904;SDS011;63465;50.862;6.220;2024-03-25T05:53:34;12.70;;;4.97;;
74904;SDS011;63465;50.862;6.220;2024-03-25T05:56:00;11.03;;;5.70;;
74904;SDS011;63465;50.862;6.220;2024-03-25T05:58:26;9.77;;;6.13;;
74904;SDS011;63465;50.862;6.220;2024-03-25T06:00:54;11.23;;;6.37;;
74904;SDS011;63465;50.862;6.220;2024-03-25T06:03:19;13.17;;;6.80;;
74904;SDS011;63465;50.862;6.220;2024-03-25T06:05:45;12.03;;;6.40;;
74904;SDS011;63465;50.862;6.220;2024-03-25T06:08:11;12.73;;;6.60;;
74904;SDS011;63465;50.862;6.220;2024-03-25T06:10:46;18.83;;;6.90;;
74904;SDS011;63465;50.862;6.220;2024-03-25T06:13:12;14.17;;;6.70;;
74904;SDS011;63465;50.862;6.220;2024-03-25T06:15:37;16.80;;;6.70;;
74904;SDS011;63465;50.862;6.220;2024-03-25T06:18:02;15.10;;;7.77;;
74904;SDS011;63465;50.862;6.220;2024-03-25T06:20:28;23.93;;;7.77;;
74904;SDS011;63465;50.862;6.220;2024-03-25T06:22:53;28.10;;;8.50;;
74904;SDS011;63465;50.862;6.220;2024-03-25T06:25:18;19.00;;;9.20;;
74904;SDS011;63465;50.862;6.220;2024-03-25T06:27:44;26.93;;;10.47;;
74904;SDS011;63465;50.862;6.220;2024-03-25T06:30:09;28.73;;;11.97;;
74904;SDS011;63465;50.862;6.220;2024-03-25T06:32:54;34.20;;;11.70;;
74904;SDS011;63465;50.862;6.220;2024-03-25T06:35:38;29.63;;;12.23;;
74904;SDS011;63465;50.862;6.220;2024-03-25T06:38:03;35.47;;;12.87;;
74904;SDS011;63465;50.862;6.220;2024-03-25T06:40:28;42.03;;;15.00;;
74904;SDS011;63465;50.862;6.220;2024-03-25T06:42:54;29.70;;;12.23;;
74904;SDS011;63465;50.862;6.220;2024-03-25T06:45:19;30.73;;;11.60;;
74904;SDS011;63465;50.862;6.220;2024-03-25T06:47:44;29.67;;;12.60;;
74904;SDS011;63465;50.862;6.220;2024-03-25T06:50:10;34.13;;;12.60;;
74904;SDS011;63465;50.862;6.220;2024-03-25T06:52:35;35.07;;;12.10;;
74904;SDS011;63465;50.862;6.220;2024-03-25T06:55:00;23.53;;;11.47;;
74904;SDS011;63465;50.862;6.220;2024-03-25T06:57:26;42.03;;;12.27;;
74904;SDS011;63465;50.862;6.220;2024-03-25T06:59:51;33.13;;;12.37;;
74904;SDS011;63465;50.862;6.220;2024-03-25T07:02:16;29.00;;;11.73;;
74904;SDS011;63465;50.862;6.220;2024-03-25T07:04:42;24.60;;;11.80;;
74904;SDS011;63465;50.862;6.220;2024-03-25T07:07:07;30.37;;;11.13;;
74904;SDS011;63465;50.862;6.220;2024-03-25T07:09:33;29.10;;;11.80;;
74904;SDS011;63465;50.862;6.220;2024-03-25T07:11:58;21.00;;;11.47;;
74904;SDS011;63465;50.862;6.220;2024-03-25T07:14:24;24.80;;;11.30;;
74904;SDS011;63465;50.862;6.220;2024-03-25T07:16:50;25.17;;;10.73;;
74904;SDS011;63465;50.862;6.220;2024-03-25T07:19:15;34.10;;;12.33;;
74904;SDS011;63465;50.862;6.220;2024-03-25T07:21:40;23.93;;;10.70;;
74904;SDS011;63465;50.862;6.220;2024-03-25T07:24:06;25.73;;;9.20;;
74904;SDS011;63465;50.862;6.220;2024-03-25T07:26:31;31.07;;;10.77;;
74904;SDS011;63465;50.862;6.220;2024-03-25T07:28:56;25.13;;;10.90;;
74904;SDS011;63465;50.862;6.220;2024-03-25T07:31:22;19.70;;;10.47;;
74904;SDS011;63465;50.862;6.220;2024-03-25T07:33:47;18.17;;;9.37;;
74904;SDS011;63465;50.862;6.220;2024-03-25T07:36:12;24.53;;;10.43;;
74904;SDS011;63465;50.862;6.220;2024-03-25T07:38:37;19.63;;;9.40;;
74904;SDS011;63465;50.862;6.220;2024-03-25T07:41:06;18.77;;;9.70;;
74904;SDS011;63465;50.862;6.220;2024-03-25T07:43:31;19.23;;;8.27;;
74904;SDS011;63465;50.862;6.220;2024-03-25T07:45:56;23.93;;;9.10;;
74904;SDS011;63465;50.862;6.220;2024-03-25T07:48:22;15.57;;;9.70;;
74904;SDS011;63465;50.862;6.220;2024-03-25T07:50:48;21.70;;;8.90;;
74904;SDS011;63465;50.862;6.220;2024-03-25T07:53:13;15.60;;;7.50;;
74904;SDS011;63465;50.862;6.220;2024-03-25T07:55:39;16.57;;;8.40;;
74904;SDS011;63465;50.862;6.220;2024-03-25T07:58:04;16.60;;;8.17;;
74904;SDS011;63465;50.862;6.220;2024-03-25T08:00:30;16.97;;;8.20;;
74904;SDS011;63465;50.862;6.220;2024-03-25T08:02:55;17.17;;;8.00;;
74904;SDS011;63465;50.862;6.220;2024-03-25T08:05:20;11.87;;;7.00;;
74904;SDS011;63465;50.862;6.220;2024-03-25T08:07:47;17.33;;;7.50;;
74904;SDS011;63465;50.862;6.220;2024-03-25T08:10:13;10.53;;;7.50;;
74904;SDS011;63465;50.862;6.220;2024-03-25T08:12:38;11.80;;;6.47;;
74904;SDS011;63465;50.862;6.220;2024-03-25T08:15:04;12.17;;;7.10;;
74904;SDS011;63465;50.862;6.220;2024-03-25T08:17:29;10.23;;;6.30;;
74904;SDS011;63465;50.862;6.220;2024-03-25T08:19:55;18.80;;;7.27;;
74904;SDS011;63465;50.862;6.220;2024-03-25T08:22:20;13.03;;;6.80;;
74904;SDS011;63465;50.862;6.220;2024-03-25T08:24:45;13.60;;;7.30;;
74904;SDS011;63465;50.862;6.220;2024-03-25T08:27:11;12.57;;;7.17;;
74904;SDS011;63465;50.862;6.220;2024-03-25T08:29:36;10.47;;;6.33;;
74904;SDS011;63465;50.862;6.220;2024-03-25T08:32:01;15.53;;;6.90;;
74904;SDS011;63465;50.862;6.220;2024-03-25T08:34:27;13.73;;;6.80;;
74904;SDS011;63465;50.862;6.220;2024-03-25T08:36:52;8.57;;;6.03;;
74904;SDS011;63465;50.862;6.220;2024-03-25T08:39:17;9.50;;;6.40;;
74904;SDS011;63465;50.862;6.220;2024-03-25T08:41:43;12.30;;;7.03;;
74904;SDS011;63465;50.862;6.220;2024-03-25T08:44:10;10.07;;;5.93;;
74904;SDS011;63465;50.862;6.220;2024-03-25T08:46:35;12.90;;;6.40;;
74904;SDS011;63465;50.862;6.220;2024-03-25T08:49:01;10.73;;;5.63;;
74904;SDS011;63465;50.862;6.220;2024-03-25T08:51:27;14.50;;;6.13;;
74904;SDS011;63465;50.862;6.220;2024-03-25T08:53:52;10.47;;;6.00;;
74904;SDS011;63465;50.862;6.220;2024-03-25T08:56:17;12.60;;;5.87;;
74904;SDS011;63465;50.862;6.220;2024-03-25T08:58:43;9.80;;;5.00;;
74904;SDS011;63465;50.862;6.220;2024-03-25T09:01:08;8.83;;;5.53;;
74904;SDS011;63465;50.862;6.220;2024-03-25T09:03:35;8.67;;;4.90;;
74904;SDS011;63465;50.862;6.220;2024-03-25T09:06:00;12.30;;;4.50;;
74904;SDS011;63465;50.862;6.220;2024-03-25T09:08:25;8.73;;;4.60;;
74904;SDS011;63465;50.862;6.220;2024-03-25T09:10:51;6.73;;;3.10;;
74904;SDS011;63465;50.862;6.220;2024-03-25T09:13:31;3.10;;;2.77;;
74904;SDS011;63465;50.862;6.220;2024-03-25T09:15:57;9.20;;;3.13;;
74904;SDS011;63465;50.862;6.220;2024-03-25T09:18:22;4.33;;;1.80;;
74904;SDS011;63465;50.862;6.220;2024-03-25T09:20:48;4.07;;;1.60;;
74904;SDS011;63465;50.862;6.220;2024-03-25T09:23:13;4.50;;;1.60;;
74904;SDS011;63465;50.862;6.220;2024-03-25T09:25:38;2.80;;;1.43;;
74904;SDS011;63465;50.862;6.220;2024-03-25T09:28:04;1.63;;;1.07;;
74904;SDS011;63465;50.862;6.220;2024-03-25T09:30:29;4.53;;;1.80;;
74904;SDS011;63465;50.862;6.220;2024-03-25T09:32:54;3.17;;;1.63;;
74904;SDS011;63465;50.862;6.220;2024-03-25T09:35:20;4.83;;;1.83;;
74904;SDS011;63465;50.862;6.220;2024-03-25T09:37:46;2.77;;;1.73;;
74904;SDS011;63465;50.862;6.220;2024-03-25T09:40:11;2.93;;;1.40;;
74904;SDS011;63465;50.862;6.220;2024-03-25T09:42:49;3.13;;;1.90;;
74904;SDS011;63465;50.862;6.220;2024-03-25T09:45:18;3.30;;;1.67;;
74904;SDS011;63465;50.862;6.220;2024-03-25T09:47:47;5.53;;;1.73;;
74904;SDS011;63465;50.862;6.220;2024-03-25T09:50:13;1.93;;;1.63;;
74904;SDS011;63465;50.862;6.220;2024-03-25T09:52:44;2.67;;;1.60;;
74904;SDS011;63465;50.862;6.220;2024-03-25T09:55:10;6.40;;;2.30;;
74904;SDS011;63465;50.862;6.220;2024-03-25T09:57:35;5.50;;;2.60;;
74904;SDS011;63465;50.862;6.220;2024-03-25T10:00:01;3.57;;;2.10;;
74904;SDS011;63465;50.862;6.220;2024-03-25T10:02:29;3.77;;;2.00;;
74904;SDS011;63465;50.862;6.220;2024-03-25T10:04:55;5.90;;;2.70;;
74904;SDS011;63465;50.862;6.220;2024-03-25T10:07:22;3.27;;;2.60;;
74904;SDS011;63465;50.862;6.220;2024-03-25T10:09:48;5.40;;;3.40;;
74904;SDS011;63465;50.862;6.220;2024-03-25T10:12:14;3.70;;;2.70;;
74904;SDS011;63465;50.862;6.220;2024-03-25T10:14:40;6.90;;;4.77;;
74904;SDS011;63465;50.862;6.220;2024-03-25T10:17:06;7.77;;;3.17;;
74904;SDS011;63465;50.862;6.220;2024-03-25T10:19:32;3.00;;;2.70;;
74904;SDS011;63465;50.862;6.220;2024-03-25T10:22:05;6.53;;;5.10;;
74904;SDS011;63465;50.862;6.220;2024-03-25T10:24:41;8.00;;;3.60;;
74904;SDS011;63465;50.862;6.220;2024-03-25T10:27:20;4.43;;;2.87;;
74904;SDS011;63465;50.862;6.220;2024-03-25T10:29:53;9.13;;;6.20;;
74904;SDS011;63465;50.862;6.220;2024-03-25T10:32:22;4.53;;;3.30;;
74904;SDS011;63465;50.862;6.220;2024-03-25T10:34:50;7.07;;;2.93;;
74904;SDS011;63465;50.862;6.220;2024-03-25T10:37:15;5.70;;;3.20;;
74904;SDS011;63465;50.862;6.220;2024-03-25T10:39:49;6.37;;;3.10;;
74904;SDS011;63465;50.862;6.220;2024-03-25T10:42:18;3.87;;;2.50;;
74904;SDS011;63465;50.862;6.220;2024-03-25T10:44:44;6.43;;;3.40;;
74904;SDS011;63465;50.862;6.220;2024-03-25T10:47:10;5.23;;;2.77;;
74904;SDS011;63465;50.862;6.220;2024-03-25T10:49:49;4.87;;;3.40;;
74904;SDS011;63465;50.862;6.220;2024-03-25T10:52:22;11.03;;;3.63;;
74904;SDS011;63465;50.862;6.220;2024-03-25T10:54:49;3.50;;;2.77;;
74904;SDS011;63465;50.862;6.220;2024-03-25T10:57:15;6.47;;;3.50;;
74904;SDS011;63465;50.862;6.220;2024-03-25T10:59:44;5.50;;;3.30;;
74904;SDS011;63465;50.862;6.220;2024-03-25T11:02:10;3.80;;;2.67;;
74904;SDS011;63465;50.862;6.220;2024-03-25T11:04:36;3.30;;;2.33;;
74904;SDS011;63465;50.862;6.220;2024-03-25T11:09:38;5.37;;;3.00;;
74904;SDS011;63465;50.862;6.220;2024-03-25T11:12:03;6.40;;;2.77;;
74904;SDS011;63465;50.862;6.220;2024-03-25T11:14:29;7.83;;;3.43;;
74904;SDS011;63465;50.862;6.220;2024-03-25T11:16:57;5.10;;;3.60;;
74904;SDS011;63465;50.862;6.220;2024-03-25T11:19:28;4.57;;;2.87;;
74904;SDS011;63465;50.862;6.220;2024-03-25T11:22:05;5.53;;;3.27;;
74904;SDS011;63465;50.862;6.220;2024-03-25T11:24:35;5.83;;;3.10;;
74904;SDS011;63465;50.862;6.220;2024-03-25T11:27:02;7.00;;;3.07;;
74904;SDS011;63465;50.862;6.220;2024-03-25T11:29:30;6.40;;;3.30;;
74904;SDS011;63465;50.862;6.220;2024-03-25T11:31:56;4.50;;;2.60;;
74904;SDS011;63465;50.862;6.220;2024-03-25T11:34:25;5.87;;;2.67;;
74904;SDS011;63465;50.862;6.220;2024-03-25T11:36:50;7.40;;;2.93;;
74904;SDS011;63465;50.862;6.220;2024-03-25T11:39:21;6.87;;;3.27;;
74904;SDS011;63465;50.862;6.220;2024-03-25T11:41:46;3.17;;;2.57;;
74904;SDS011;63465;50.862;6.220;2024-03-25T11:44:12;7.57;;;3.17;;
74904;SDS011;63465;50.862;6.220;2024-03-25T11:46:37;3.90;;;2.23;;
74904;SDS011;63465;50.862;6.220;2024-03-25T11:49:07;4.20;;;2.00;;
74904;SDS011;63465;50.862;6.220;2024-03-25T11:51:34;3.43;;;2.30;;
74904;SDS011;63465;50.862;6.220;2024-03-25T11:54:03;5.13;;;2.17;;
74904;SDS011;63465;50.862;6.220;2024-03-25T11:56:29;4.87;;;2.77;;
74904;SDS011;63465;50.862;6.220;2024-03-25T11:58:55;4.70;;;2.60;;
74904;SDS011;63465;50.862;6.220;2024-03-25T12:01:21;5.97;;;2.60;;
74904;SDS011;63465;50.862;6.220;2024-03-25T12:03:46;4.80;;;2.47;;
74904;SDS011;63465;50.862;6.220;2024-03-25T12:06:12;5.10;;;2.67;;
74904;SDS011;63465;50.862;6.220;2024-03-25T12:08:37;5.80;;;2.50;;
74904;SDS011;63465;50.862;6.220;2024-03-25T12:11:10;3.73;;;2.53;;
74904;SDS011;63465;50.862;6.220;2024-03-25T12:13:44;4.50;;;2.50;;
74904;SDS011;63465;50.862;6.220;2024-03-25T12:16:10;5.73;;;2.53;;
74904;SDS011;63465;50.862;6.220;2024-03-25T12:18:36;6.77;;;2.93;;
74904;SDS011;63465;50.862;6.220;2024-03-25T12:21:04;7.13;;;3.00;;
74904;SDS011;63465;50.862;6.220;2024-03-25T12:23:30;3.47;;;2.67;;
74904;SDS011;63465;50.862;6.220;2024-03-25T12:25:58;5.40;;;3.10;;
74904;SDS011;63465;50.862;6.220;2024-03-25T12:28:24;5.00;;;3.00;;
74904;SDS011;63465;50.862;6.220;2024-03-25T12:30:50;5.70;;;3.23;;
74904;SDS011;63465;50.862;6.220;2024-03-25T12:33:17;4.77;;;2.60;;
74904;SDS011;63465;50.862;6.220;2024-03-25T12:35:45;4.30;;;2.83;;
74904;SDS011;63465;50.862;6.220;2024-03-25T12:38:21;5.03;;;3.10;;
74904;SDS011;63465;50.862;6.220;2024-03-25T12:40:47;8.53;;;2.93;;
74904;SDS011;63465;50.862;6.220;2024-03-25T12:43:16;9.30;;;3.10;;
74904;SDS011;63465;50.862;6.220;2024-03-25T12:45:41;3.73;;;2.77;;
74904;SDS011;63465;50.862;6.220;2024-03-25T12:48:07;3.63;;;2.83;;
74904;SDS011;63465;50.862;6.220;2024-03-25T12:50:33;3.90;;;2.70;;
74904;SDS011;63465;50.862;6.220;2024-03-25T12:52:58;4.40;;;2.20;;
74904;SDS011;63465;50.862;6.220;2024-03-25T12:55:24;4.27;;;2.30;;
74904;SDS011;63465;50.862;6.220;2024-03-25T12:57:49;3.93;;;2.77;;
74904;SDS011;63465;50.862;6.220;2024-03-25T13:00:15;6.23;;;2.80;;
74904;SDS011;63465;50.862;6.220;2024-03-25T13:02:40;3.27;;;2.73;;
74904;SDS011;63465;50.862;6.220;2024-03-25T13:05:06;4.47;;;3.07;;
74904;SDS011;63465;50.862;6.220;2024-03-25T13:07:31;3.60;;;2.83;;
74904;SDS011;63465;50.862;6.220;2024-03-25T13:09:57;6.43;;;2.70;;
74904;SDS011;63465;50.862;6.220;2024-03-25T13:12:23;3.10;;;2.60;;
74904;SDS011;63465;50.862;6.220;2024-03-25T13:14:48;5.53;;;2.70;;
74904;SDS011;63465;50.862;6.220;2024-03-25T13:17:13;4.03;;;3.07;;
74904;SDS011;63465;50.862;6.220;2024-03-25T13:19:39;3.20;;;2.90;;
74904;SDS011;63465;50.862;6.220;2024-03-25T13:22:04;5.50;;;3.27;;
74904;SDS011;63465;50.862;6.220;2024-03-25T13:24:30;3.33;;;2.70;;
74904;SDS011;63465;50.862;6.220;2024-03-25T13:26:56;3.47;;;2.27;;
74904;SDS011;63465;50.862;6.220;2024-03-25T13:29:21;4.73;;;2.80;;
74904;SDS011;63465;50.862;6.220;2024-03-25T13:31:46;4.07;;;2.67;;
74904;SDS011;63465;50.862;6.220;2024-03-25T13:34:12;3.60;;;2.30;;
74904;SDS011;63465;50.862;6.220;2024-03-25T13:36:37;5.40;;;2.67;;
74904;SDS011;63465;50.862;6.220;2024-03-25T13:39:03;4.50;;;2.90;;
74904;SDS011;63465;50.862;6.220;2024-03-25T13:41:28;7.37;;;2.90;;
74904;SDS011;63465;50.862;6.220;2024-03-25T13:43:53;4.30;;;2.40;;
74904;SDS011;63465;50.862;6.220;2024-03-25T13:46:19;5.33;;;2.70;;
74904;SDS011;63465;50.862;6.220;2024-03-25T13:48:44;3.90;;;3.20;;
74904;SDS011;63465;50.862;6.220;2024-03-25T13:51:12;7.00;;;3.00;;
74904;SDS011;63465;50.862;6.220;2024-03-25T13:53:37;5.17;;;2.90;;
74904;SDS011;63465;50.862;6.220;2024-03-25T13:56:02;3.03;;;2.50;;
74904;SDS011;63465;50.862;6.220;2024-03-25T13:58:28;6.57;;;3.17;;
74904;SDS011;63465;50.862;6.220;2024-03-25T14:00:53;7.13;;;3.03;;
74904;SDS011;63465;50.862;6.220;2024-03-25T14:03:20;3.93;;;3.07;;
74904;SDS011;63465;50.862;6.220;2024-03-25T14:05:45;3.90;;;2.40;;
74904;SDS011;63465;50.862;6.220;2024-03-25T14:08:11;6.70;;;2.90;;
74904;SDS011;63465;50.862;6.220;2024-03-25T14:10:36;6.20;;;3.27;;
74904;SDS011;63465;50.862;6.220;2024-03-25T14:13:02;4.23;;;2.90;;
74904;SDS011;63465;50.862;6.220;2024-03-25T14:15:28;3.30;;;2.77;;
74904;SDS011;63465;50.862;6.220;2024-03-25T14:17:53;8.00;;;3.03;;
74904;SDS011;63465;50.862;6.220;2024-03-25T14:20:19;3.47;;;2.90;;
74904;SDS011;63465;50.862;6.220;2024-03-25T14:22:44;4.33;;;2.60;;
74904;SDS011;63465;50.862;6.220;2024-03-25T14:25:09;10.60;;;2.87;;
74904;SDS011;63465;50.862;6.220;2024-03-25T14:27:35;4.83;;;2.70;;
74904;SDS011;63465;50.862;6.220;2024-03-25T14:30:00;5.87;;;3.07;;
74904;SDS011;63465;50.862;6.220;2024-03-25T14:32:25;2.57;;;2.30;;
74904;SDS011;63465;50.862;6.220;2024-03-25T14:34:51;6.00;;;2.57;;
74904;SDS011;63465;50.862;6.220;2024-03-25T14:37:16;4.33;;;2.70;;